Time;durP1;ratioP1;P1;durP2;ratioP2;P2;SDS_P1;SDS_P2;PMS_P1;PMS_P2;Temp;Humidity;BMP_temperature;BMP_pressure;BME280_temperature;BME280_humidity;BME280_pressure;Samples;Min_cycle;Max_cycle;Signal;HPM_P1;HPM_P2
2021/01/11 00:02:21;;;;;;;39.33;18.57;;;;;;;-1.31;77.19;100173.77;124492;1146;22937;-67
2021/01/11 00:04:49;;;;;;;41.73;18.80;;;;;;;-1.34;76.91;100168.73;124310;1146;22701;-67
2021/01/11 00:07:16;;;;;;;42.23;17.17;;;;;;;-1.39;77.33;100163.88;124433;1146;23582;-67
2021/01/11 00:09:44;;;;;;;35.70;17.63;;;;;;;-1.44;77.13;100151.00;124462;1146;22697;-67
2021/01/11 00:12:38;;;;;;;31.07;15.05;;;;;;;-1.44;77.07;100150.17;124579;1146;22739;-67
2021/01/11 00:15:07;;;;;;;29.47;13.77;;;;;;;-1.47;77.28;100150.52;124405;1146;22662;-67
2021/01/11 00:17:35;;;;;;;27.60;13.50;;;;;;;-1.50;77.00;100150.84;124537;1146;22651;-67
2021/01/11 00:20:05;;;;;;;20.83;11.23;;;;;;;-1.50;77.32;100157.03;124336;1146;22648;-67
2021/01/11 00:22:33;;;;;;;23.00;11.83;;;;;;;-1.48;77.67;100159.54;124450;1146;22761;-66
2021/01/11 00:25:01;;;;;;;22.30;11.97;;;;;;;-1.44;77.17;100167.04;124487;1145;22664;-66
2021/01/11 00:27:30;;;;;;;24.90;10.77;;;;;;;-1.40;77.40;100166.72;120064;1146;27177;-70
2021/01/11 00:29:57;;;;;;;22.67;12.40;;;;;;;-1.38;77.17;100165.55;119972;1146;27234;-70
2021/01/11 00:32:25;;;;;;;22.67;11.63;;;;;;;-1.35;76.77;100175.09;119904;1147;27185;-68
2021/01/11 00:34:52;;;;;;;16.57;9.70;;;;;;;-1.34;76.65;100182.94;119987;1146;26070;-68
2021/01/11 00:37:20;;;;;;;18.27;10.50;;;;;;;-1.34;76.97;100177.59;119842;1146;26009;-68
2021/01/11 00:39:48;;;;;;;19.13;10.60;;;;;;;-1.34;76.71;100177.59;124451;1146;23585;-68
2021/01/11 00:42:15;;;;;;;16.20;10.13;;;;;;;-1.37;76.59;100171.73;124436;1146;23546;-69
2021/01/11 00:44:43;;;;;;;19.13;10.03;;;;;;;-1.42;76.48;100172.22;124522;1146;23508;-67
2021/01/11 00:47:10;;;;;;;19.37;10.10;;;;;;;-1.48;76.15;100165.72;124307;1146;22671;-67
2021/01/11 00:49:39;;;;;;;15.43;8.70;;;;;;;-1.54;76.65;100171.71;124530;1146;23479;-67
2021/01/11 00:52:07;;;;;;;16.23;9.37;;;;;;;-1.54;77.04;100176.22;124342;1146;26892;-67
2021/01/11 00:54:34;;;;;;;20.07;10.20;;;;;;;-1.56;76.16;100183.55;124519;1145;22667;-67
2021/01/11 00:57:07;;;;;;;17.40;9.17;;;;;;;-1.60;75.68;100185.74;124132;1146;22693;-67
2021/01/11 00:59:57;;;;;;;16.47;8.93;;;;;;;-1.65;75.72;100185.39;124211;1147;22715;-67
2021/01/11 01:02:38;;;;;;;16.83;9.33;;;;;;;-1.70;75.70;100190.37;124161;1147;23482;-67
2021/01/11 01:05:10;;;;;;;16.90;9.77;;;;;;;-1.74;75.33;100194.39;124198;1147;22728;-68
2021/01/11 01:07:43;;;;;;;16.27;10.03;;;;;;;-1.79;75.06;100194.86;124197;1146;22702;-67
2021/01/11 01:10:11;;;;;;;19.37;10.27;;;;;;;-1.86;75.09;100188.48;124471;1147;22707;-68
2021/01/11 01:12:40;;;;;;;18.53;10.23;;;;;;;-1.92;75.15;100189.15;124229;1147;22691;-67
2021/01/11 01:15:09;;;;;;;25.73;12.33;;;;;;;-1.95;75.03;100194.80;124320;1147;22793;-68
2021/01/11 01:17:39;;;;;;;28.33;14.27;;;;;;;-2.09;75.49;100173.22;124402;1146;23647;-67
2021/01/11 01:20:15;;;;;;;34.67;16.00;;;;;;;-1.99;75.38;100192.61;124340;1146;22801;-67
2021/01/11 01:22:45;;;;;;;26.67;14.23;;;;;;;-1.99;75.77;100179.26;124212;1146;22713;-67
2021/01/11 01:25:13;;;;;;;26.80;14.40;;;;;;;-1.99;75.23;100190.77;124362;1146;22681;-67
2021/01/11 01:27:41;;;;;;;22.73;12.83;;;;;;;-2.02;74.96;100191.09;124340;1146;22714;-67
2021/01/11 01:30:09;;;;;;;32.77;15.83;;;;;;;-2.07;74.79;100187.25;124429;1146;22791;-67
2021/01/11 01:32:37;;;;;;;32.27;16.03;;;;;;;-2.14;75.02;100193.22;124522;1146;23254;-68
2021/01/11 01:35:10;;;;;;;29.23;14.53;;;;;;;-2.17;75.73;100185.55;124336;1146;23505;-66
2021/01/11 01:37:39;;;;;;;30.53;15.63;;;;;;;-2.18;74.77;100185.70;124477;1145;23502;-68
2021/01/11 01:40:06;;;;;;;37.43;16.00;;;;;;;-2.22;75.04;100190.52;124327;1146;22691;-68
2021/01/11 01:42:34;;;;;;;28.83;14.27;;;;;;;-2.26;74.69;100193.66;124428;1146;22692;-67
2021/01/11 01:45:04;;;;;;;24.93;13.23;;;;;;;-2.26;75.04;100188.32;124369;1146;22726;-67
2021/01/11 01:47:32;;;;;;;26.17;13.53;;;;;;;-2.29;74.89;100194.81;124523;1146;23462;-67
2021/01/11 01:50:01;;;;;;;25.67;13.90;;;;;;;-2.32;74.75;100192.48;124366;1146;22703;-68
2021/01/11 01:52:28;;;;;;;25.10;12.47;;;;;;;-2.36;74.60;100204.46;124452;1146;22686;-70
2021/01/11 01:54:56;;;;;;;23.00;12.63;;;;;;;-2.39;75.05;100206.59;124392;1146;22757;-67
2021/01/11 01:57:23;;;;;;;29.90;14.10;;;;;;;-2.40;75.24;100204.92;124530;1146;22717;-68
2021/01/11 01:59:50;;;;;;;24.25;13.25;;;;;;;-2.37;75.50;100207.28;124333;1146;22749;-67
2021/01/11 02:02:18;;;;;;;23.43;12.70;;;;;;;-2.33;76.14;100211.31;124477;1145;22754;-67
2021/01/11 02:04:46;;;;;;;25.63;12.57;;;;;;;-2.30;76.01;100219.82;124279;1146;22758;-67
2021/01/11 02:07:15;;;;;;;28.23;14.47;;;;;;;-2.27;76.05;100219.51;124347;1146;22763;-67
2021/01/11 02:09:54;;;;;;;32.15;15.55;;;;;;;-2.21;76.44;100218.89;124386;1146;22685;-67
2021/01/11 02:12:22;;;;;;;30.77;15.30;;;;;;;-2.18;76.49;100220.41;124456;1146;22671;-67
2021/01/11 02:14:50;;;;;;;30.50;15.80;;;;;;;-2.16;76.70;100213.05;124252;1146;24044;-67
2021/01/11 02:17:28;;;;;;;36.53;17.20;;;;;;;-2.13;76.83;100210.06;124435;1146;22727;-67
2021/01/11 02:20:24;;;;;;;37.67;17.03;;;;;;;-2.10;76.96;100200.91;124331;1146;22670;-67
2021/01/11 02:23:19;;;;;;;34.40;16.83;;;;;;;-2.07;77.11;100209.44;124473;1146;22787;-67
2021/01/11 02:26:05;;;;;;;40.97;18.63;;;;;;;-2.03;77.07;100201.95;124393;1146;23832;-68
2021/01/11 02:28:58;;;;;;;37.93;18.13;;;;;;;-2.01;77.51;100200.77;124467;1146;22799;-68
2021/01/11 02:31:25;;;;;;;38.57;19.37;;;;;;;-1.96;77.90;100197.63;124419;1146;22680;-67
2021/01/11 02:33:53;;;;;;;40.23;21.17;;;;;;;-1.91;77.74;100184.64;124392;1146;22697;-67
2021/01/11 02:36:21;;;;;;;40.77;20.00;;;;;;;-1.88;77.93;100192.34;124373;1146;22659;-68
2021/01/11 02:38:49;;;;;;;49.27;22.57;;;;;;;-1.86;77.52;100191.16;124577;1145;22670;-68
2021/01/11 02:41:16;;;;;;;50.90;25.45;;;;;;;-1.81;78.29;100190.68;124304;1145;22760;-68
2021/01/11 02:43:44;;;;;;;48.80;24.43;;;;;;;-1.77;78.37;100184.02;124480;1146;22683;-68
2021/01/11 02:46:11;;;;;;;50.05;23.25;;;;;;;-1.73;78.33;100174.66;122959;1146;22913;-67
2021/01/11 02:48:54;;;;;;;55.53;23.80;;;;;;;-1.65;77.99;100173.86;121033;1147;22921;-67
2021/01/11 02:51:33;;;;;;;51.87;23.60;;;;;;;-1.63;78.43;100170.03;120983;1146;23089;-67
2021/01/11 02:54:24;;;;;;;48.07;25.27;;;;;;;-1.60;78.34;100156.36;121075;1147;22973;-67
2021/01/11 02:56:58;;;;;;;48.20;23.77;;;;;;;-1.58;78.30;100157.00;121291;1146;28544;-67
2021/01/11 02:59:43;;;;;;;68.40;31.07;;;;;;;-1.58;77.83;100150.81;124557;1146;23424;-68
2021/01/11 03:02:12;;;;;;;65.87;31.87;;;;;;;-1.58;78.07;100148.14;124378;1146;22655;-67
2021/01/11 03:04:40;;;;;;;65.10;31.37;;;;;;;-1.57;78.37;100150.66;124477;1145;23592;-67
2021/01/11 03:07:08;;;;;;;61.50;28.50;;;;;;;-1.57;77.98;100145.31;124282;1145;22741;-68
2021/01/11 03:09:38;;;;;;;61.60;29.03;;;;;;;-1.54;78.86;100144.16;124488;1145;22750;-67
2021/01/11 03:12:05;;;;;;;58.27;27.77;;;;;;;-1.50;78.32;100156.20;124334;1145;22682;-68
2021/01/11 03:14:33;;;;;;;60.40;27.73;;;;;;;-1.55;78.59;100147.83;124434;1145;25161;-67
2021/01/11 03:17:01;;;;;;;63.67;29.97;;;;;;;-1.43;79.09;100162.53;122025;1146;22929;-67
2021/01/11 03:19:28;;;;;;;63.83;29.67;;;;;;;-1.39;78.90;100173.73;121444;1147;23538;-67
2021/01/11 03:24:09;;;;;;;56.10;24.77;;;;;;;-1.33;78.71;100179.27;121043;1147;23023;-66
2021/01/11 03:26:37;;;;;;;48.00;24.23;;;;;;;-1.30;78.87;100173.60;121197;1147;26504;-66
2021/01/11 03:29:04;;;;;;;48.23;23.30;;;;;;;-1.26;78.73;100180.27;121177;1147;27077;-66
2021/01/11 03:31:32;;;;;;;50.93;24.03;;;;;;;-1.22;78.72;100175.43;121175;1147;22950;-66
2021/01/11 03:34:00;;;;;;;54.87;26.10;;;;;;;-1.22;78.94;100181.61;121183;1147;27191;-66
2021/01/11 03:36:29;;;;;;;54.60;27.33;;;;;;;-1.24;78.23;100178.27;121267;1148;22922;-67
2021/01/11 03:38:59;;;;;;;44.23;25.33;;;;;;;-1.25;78.48;100173.92;121038;1148;26849;-66
2021/01/11 03:41:26;;;;;;;54.53;25.63;;;;;;;-1.24;78.45;100172.08;121143;1147;22929;-66
2021/01/11 03:43:54;;;;;;;53.90;26.40;;;;;;;-1.24;79.15;100172.92;120805;1147;22938;-67
2021/01/11 03:46:21;;;;;;;62.77;27.63;;;;;;;-1.23;78.39;100185.28;120846;1148;23202;-67
2021/01/11 03:48:48;;;;;;;59.73;27.03;;;;;;;-1.23;78.51;100179.94;120828;1147;23069;-67
2021/01/11 03:51:16;;;;;;;57.50;26.70;;;;;;;-1.21;78.53;100191.31;120861;1147;22936;-66
2021/01/11 03:53:44;;;;;;;61.93;27.07;;;;;;;-1.19;79.10;100191.98;120756;1147;23781;-66
2021/01/11 03:56:12;;;;;;;56.40;26.40;;;;;;;-1.18;79.20;100188.31;120873;1147;22927;-67
2021/01/11 03:58:39;;;;;;;59.60;26.53;;;;;;;-1.14;78.75;100194.97;120888;1147;23057;-67
2021/01/11 04:01:06;;;;;;;60.03;28.27;;;;;;;-1.13;78.63;100185.11;120989;1147;22941;-67
2021/01/11 04:03:34;;;;;;;61.53;28.77;;;;;;;-1.15;78.65;100187.11;124343;1145;22717;-67
2021/01/11 04:06:02;;;;;;;63.23;30.37;;;;;;;-1.16;79.14;100188.14;124378;1146;23575;-67
2021/01/11 04:08:38;;;;;;;62.53;31.42;;;;;;;-1.18;78.60;100209.70;124416;1146;23746;-67
2021/01/11 04:11:07;;;;;;;66.77;32.83;;;;;;;-1.17;79.08;100205.19;124235;1147;22848;-67
2021/01/11 04:13:35;;;;;;;68.03;34.53;;;;;;;-1.16;78.69;100213.05;124372;1147;23511;-67
2021/01/11 04:16:03;;;;;;;64.10;29.57;;;;;;;-1.17;79.26;100203.35;124256;1147;22701;-67
2021/01/11 04:18:30;;;;;;;62.63;30.23;;;;;;;-1.19;79.00;100202.67;124391;1146;23523;-67
2021/01/11 04:20:57;;;;;;;55.70;27.63;;;;;;;-1.15;79.23;100220.03;124155;1147;22840;-68
2021/01/11 04:23:25;;;;;;;58.73;28.43;;;;;;;-1.12;79.16;100213.53;124261;1146;22825;-67
2021/01/11 04:25:52;;;;;;;54.77;27.50;;;;;;;-1.07;79.39;100216.55;124121;1145;22676;-67
2021/01/11 04:28:20;;;;;;;56.13;26.93;;;;;;;-1.01;79.72;100215.06;124361;1147;22698;-68
2021/01/11 04:30:47;;;;;;;55.55;26.90;;;;;;;-0.97;79.31;100213.70;124349;1147;22687;-67
2021/01/11 04:33:15;;;;;;;50.97;26.47;;;;;;;-0.97;79.31;100211.86;124342;1148;23140;-67
2021/01/11 04:35:42;;;;;;;49.40;27.30;;;;;;;-0.94;79.34;100208.03;124241;1146;22729;-68
2021/01/11 04:38:09;;;;;;;49.33;25.77;;;;;;;-0.91;78.95;100199.67;124313;1148;22707;-67
2021/01/11 04:40:37;;;;;;;45.27;23.20;;;;;;;-0.89;79.50;100205.70;124166;1147;22680;-68
2021/01/11 04:43:09;;;;;;;51.50;25.73;;;;;;;-0.87;78.46;100204.53;124152;1148;22701;-67
2021/01/11 04:45:37;;;;;;;44.87;25.17;;;;;;;-0.84;79.11;100196.14;124176;1147;22930;-68
2021/01/11 04:48:04;;;;;;;45.83;24.63;;;;;;;-0.82;78.62;100196.81;124511;1145;22821;-68
2021/01/11 04:50:32;;;;;;;41.17;22.10;;;;;;;-0.79;78.89;100203.67;124296;1147;23470;-67
2021/01/11 04:53:00;;;;;;;35.57;20.47;;;;;;;-0.79;79.08;100201.00;124451;1147;22685;-67
2021/01/11 04:55:28;;;;;;;38.53;21.20;;;;;;;-0.80;78.18;100208.19;124462;1145;23493;-68
2021/01/11 04:57:56;;;;;;;63.83;30.67;;;;;;;-0.82;78.25;100199.49;124010;1147;22707;-68
2021/01/11 05:00:28;;;;;;;44.60;22.20;;;;;;;-0.83;79.33;100199.66;124169;1146;22763;-67
2021/01/11 05:02:58;;;;;;;42.53;21.00;;;;;;;-0.85;78.34;100191.80;124342;1147;22693;-68
2021/01/11 05:05:27;;;;;;;35.97;20.30;;;;;;;-0.85;78.72;100198.98;124280;1147;22701;-68
2021/01/11 05:07:55;;;;;;;37.97;20.87;;;;;;;-0.89;78.51;100198.51;124235;1147;22914;-68
2021/01/11 05:10:27;;;;;;;37.37;19.83;;;;;;;-0.90;78.48;100209.38;124216;1148;24028;-67
2021/01/11 05:12:55;;;;;;;36.87;19.97;;;;;;;-0.91;79.19;100200.52;124388;1146;22693;-68
2021/01/11 05:15:24;;;;;;;33.00;19.00;;;;;;;-0.88;79.21;100204.70;124244;1148;22665;-68
2021/01/11 05:17:51;;;;;;;33.70;19.73;;;;;;;-0.85;78.86;100198.98;124161;1147;23476;-68
2021/01/11 05:20:20;;;;;;;37.50;19.80;;;;;;;-0.87;79.25;100201.02;124303;1146;23878;-68
2021/01/11 05:22:47;;;;;;;39.20;21.00;;;;;;;-0.89;79.22;100198.51;124070;1148;22729;-68
2021/01/11 05:25:16;;;;;;;45.50;21.40;;;;;;;-0.88;78.44;100202.86;124340;1147;22709;-67
2021/01/11 05:27:44;;;;;;;40.87;21.87;;;;;;;-0.86;78.59;100202.66;124151;1147;22660;-68
2021/01/11 05:30:24;;;;;;;39.53;22.17;;;;;;;-0.85;78.79;100202.50;124322;1147;24116;-68
2021/01/11 05:32:51;;;;;;;42.05;21.25;;;;;;;-0.83;79.01;100208.52;124198;1146;22717;-68
2021/01/11 05:35:23;;;;;;;43.30;22.00;;;;;;;-0.81;79.43;100209.19;124228;1148;22663;-68
2021/01/11 05:37:54;;;;;;;43.67;22.53;;;;;;;-0.78;79.19;100210.70;124183;1146;22693;-67
2021/01/11 05:40:25;;;;;;;57.00;26.23;;;;;;;-0.79;78.65;100215.22;124204;1147;22649;-67
2021/01/11 05:42:53;;;;;;;53.70;27.63;;;;;;;-0.80;78.33;100216.22;124181;1147;22727;-67
2021/01/11 05:45:33;;;;;;;56.03;27.53;;;;;;;-0.79;79.05;100214.38;124501;1145;22746;-67
2021/01/11 05:48:06;;;;;;;56.07;25.63;;;;;;;-0.79;78.89;100219.73;124150;1147;29123;-67
2021/01/11 05:50:40;;;;;;;54.77;25.70;;;;;;;-0.80;78.31;100221.56;124287;1146;22694;-68
2021/01/11 05:53:17;;;;;;;49.30;25.43;;;;;;;-0.80;79.22;100216.22;124183;1147;22698;-67
2021/01/11 05:55:46;;;;;;;48.50;24.47;;;;;;;-0.78;78.86;100219.56;124325;1148;22711;-68
2021/01/11 05:58:13;;;;;;;43.53;24.57;;;;;;;-0.74;78.71;100212.05;124121;1147;22736;-67
2021/01/11 06:00:41;;;;;;;40.87;22.03;;;;;;;-0.72;78.39;100218.88;124297;1146;22687;-67
2021/01/11 06:03:09;;;;;;;47.23;23.67;;;;;;;-0.71;78.37;100222.39;124446;1146;22806;-68
2021/01/11 06:05:37;;;;;;;43.30;22.90;;;;;;;-0.73;79.03;100221.75;124200;1147;23264;-67
2021/01/11 06:08:07;;;;;;;50.27;25.63;;;;;;;-0.76;78.97;100222.91;124264;1145;22756;-68
2021/01/11 06:10:34;;;;;;;60.60;26.70;;;;;;;-0.76;78.10;100228.27;124317;1148;22688;-67
2021/01/11 06:13:08;;;;;;;52.37;26.33;;;;;;;-0.78;78.42;100229.42;124405;1145;26353;-67
2021/01/11 06:15:37;;;;;;;49.47;25.17;;;;;;;-0.79;77.93;100231.27;124299;1147;23724;-68
2021/01/11 06:18:11;;;;;;;43.93;22.37;;;;;;;-0.77;78.67;100236.45;124196;1148;22672;-67
2021/01/11 06:20:43;;;;;;;39.57;21.13;;;;;;;-0.76;78.04;100240.80;124099;1147;23704;-67
2021/01/11 06:23:12;;;;;;;39.00;20.57;;;;;;;-0.75;77.98;100243.31;124382;1147;22752;-68
2021/01/11 06:25:43;;;;;;;40.33;21.40;;;;;;;-0.77;78.95;100229.27;124386;1146;23060;-68
2021/01/11 06:28:12;;;;;;;51.10;23.70;;;;;;;-0.74;78.04;100244.15;124464;1146;22685;-67
2021/01/11 06:30:42;;;;;;;50.00;22.10;;;;;;;-0.75;78.11;100243.31;124698;1143;22741;-68
2021/01/11 06:33:10;;;;;;;50.50;23.40;;;;;;;-0.71;78.13;100238.44;124804;1143;22787;-68
2021/01/11 06:35:45;;;;;;;42.93;22.30;;;;;;;-0.68;78.13;100238.11;124728;1143;22735;-68
2021/01/11 06:38:22;;;;;;;50.23;24.20;;;;;;;-0.68;77.98;100231.92;124774;1143;22692;-66
2021/01/11 06:41:01;;;;;;;63.23;28.47;;;;;;;-0.69;78.06;100231.08;124718;1143;23186;-64
2021/01/11 06:43:40;;;;;;;55.93;28.80;;;;;;;-0.67;78.66;100239.78;124847;1143;22706;-65
2021/01/11 06:46:11;;;;;;;46.27;22.93;;;;;;;-0.64;78.25;100239.45;124725;1143;22653;-66
2021/01/11 06:48:39;;;;;;;40.77;20.63;;;;;;;-0.63;78.45;100243.80;124800;1143;22785;-66
2021/01/11 06:51:10;;;;;;;36.90;19.87;;;;;;;-0.60;78.73;100239.96;124704;1143;22660;-66
2021/01/11 06:53:37;;;;;;;35.20;17.17;;;;;;;-0.61;77.72;100238.29;124821;1143;23354;-67
2021/01/11 06:56:09;;;;;;;34.07;19.07;;;;;;;-0.65;78.02;100234.27;124557;1143;22685;-66
2021/01/11 06:58:39;;;;;;;36.57;17.57;;;;;;;-0.64;77.92;100234.10;124694;1143;22697;-66
2021/01/11 07:01:07;;;;;;;34.77;17.53;;;;;;;-0.63;77.87;100235.78;124566;1143;22741;-66
2021/01/11 07:03:42;;;;;;;36.33;18.30;;;;;;;-0.61;78.51;100232.94;124844;1143;22774;-65
2021/01/11 07:06:31;;;;;;;35.33;18.87;;;;;;;-0.61;78.27;100228.42;124493;1143;22754;-67
2021/01/11 07:09:17;;;;;;;37.37;19.63;;;;;;;-0.61;77.42;100233.77;124688;1143;22782;-67
2021/01/11 07:11:46;;;;;;;40.50;19.90;;;;;;;-0.60;77.89;100230.09;124637;1142;22785;-66
2021/01/11 07:14:15;;;;;;;40.43;18.73;;;;;;;-0.61;77.87;100230.27;124761;1143;22750;-67
2021/01/11 07:16:44;;;;;;;41.77;18.27;;;;;;;-0.60;76.75;100218.55;124636;1143;22714;-67
2021/01/11 07:19:13;;;;;;;34.20;18.43;;;;;;;-0.57;77.68;100223.54;124636;1142;22678;-66
2021/01/11 07:21:41;;;;;;;33.40;17.70;;;;;;;-0.56;77.40;100231.41;124533;1143;24215;-67
2021/01/11 07:24:10;;;;;;;28.83;15.57;;;;;;;-0.57;76.29;100228.89;124702;1142;22812;-66
2021/01/11 07:26:38;;;;;;;29.03;15.67;;;;;;;-0.57;77.32;100235.08;124567;1142;22705;-67
2021/01/11 07:29:09;;;;;;;30.80;16.17;;;;;;;-0.57;76.41;100231.57;124723;1143;23401;-66
2021/01/11 07:31:44;;;;;;;36.70;18.83;;;;;;;-0.57;75.88;100228.89;124652;1143;22694;-67
2021/01/11 07:34:13;;;;;;;38.30;18.27;;;;;;;-0.56;76.39;100233.25;124722;1143;22707;-67
2021/01/11 07:36:42;;;;;;;41.45;20.40;;;;;;;-0.55;76.15;100235.76;122727;1143;22935;-66
2021/01/11 07:39:31;;;;;;;40.40;19.37;;;;;;;-0.55;76.37;100230.41;121314;1144;26356;-67
2021/01/11 07:42:00;;;;;;;36.57;19.53;;;;;;;-0.52;76.16;100237.27;121419;1144;23007;-66
2021/01/11 07:44:33;;;;;;;38.90;19.60;;;;;;;-0.50;76.06;100236.09;121424;1143;22885;-66
2021/01/11 07:47:09;;;;;;;33.50;19.00;;;;;;;-0.48;76.01;100241.28;121459;1143;25973;-67
2021/01/11 07:49:38;;;;;;;39.37;18.07;;;;;;;-0.46;76.00;100244.63;121623;1143;22889;-67
2021/01/11 07:52:19;;;;;;;39.97;20.23;;;;;;;-0.48;75.24;100234.09;121612;1144;23374;-67
2021/01/11 07:54:55;;;;;;;44.20;21.65;;;;;;;-0.49;75.19;100239.61;121623;1143;23336;-67
2021/01/11 07:57:24;;;;;;;37.13;19.40;;;;;;;-0.48;76.08;100249.31;121692;1144;24210;-67
2021/01/11 08:00:10;;;;;;;35.67;17.90;;;;;;;-0.46;75.55;100252.66;121534;1144;22879;-66
2021/01/11 08:02:44;;;;;;;27.67;15.20;;;;;;;-0.45;74.88;100254.33;124620;1143;22664;-66
2021/01/11 08:05:24;;;;;;;33.80;17.47;;;;;;;-0.43;74.46;100260.33;124559;1142;22858;-66
2021/01/11 08:08:04;;;;;;;35.83;16.53;;;;;;;-0.45;74.79;100255.17;121559;1144;22925;-66
2021/01/11 08:10:33;;;;;;;28.97;15.10;;;;;;;-0.45;74.84;100248.98;121464;1144;23826;-66
2021/01/11 08:13:07;;;;;;;21.60;13.80;;;;;;;-0.42;75.58;100248.62;121609;1143;22968;-66
2021/01/11 08:15:34;;;;;;;25.63;13.17;;;;;;;-0.40;75.27;100252.80;124660;1143;22751;-66
2021/01/11 08:18:02;;;;;;;24.07;14.10;;;;;;;-0.36;74.85;100258.66;124672;1143;22672;-66
2021/01/11 08:20:31;;;;;;;27.13;14.23;;;;;;;-0.43;74.54;100250.45;124551;1143;23483;-66
2021/01/11 08:23:11;;;;;;;31.17;15.53;;;;;;;-0.29;74.58;100261.51;124802;1142;22767;-66
2021/01/11 08:25:38;;;;;;;32.97;16.70;;;;;;;-0.27;75.13;100260.31;124743;1144;22685;-67
2021/01/11 08:28:09;;;;;;;35.07;17.50;;;;;;;-0.23;75.22;100260.81;124738;1144;22706;-67
2021/01/11 08:30:38;;;;;;;35.20;17.83;;;;;;;-0.22;74.29;100260.64;124472;1144;23801;-66
2021/01/11 08:33:06;;;;;;;33.70;18.07;;;;;;;-0.21;74.70;100265.00;124769;1143;22709;-66
2021/01/11 08:35:34;;;;;;;36.23;18.53;;;;;;;-0.21;75.22;100272.19;123837;1144;22930;-65
2021/01/11 08:38:02;;;;;;;53.73;24.97;;;;;;;-0.23;73.99;100277.72;121446;1144;24639;-66
2021/01/11 08:40:34;;;;;;;47.27;23.37;;;;;;;-0.27;75.25;100281.73;121432;1144;26512;-66
2021/01/11 08:43:13;;;;;;;43.03;21.53;;;;;;;-0.28;75.00;100272.02;121440;1144;22942;-65
2021/01/11 08:45:41;;;;;;;37.93;19.90;;;;;;;-0.28;74.58;100272.02;124683;1144;22696;-68
2021/01/11 08:48:16;;;;;;;38.97;19.63;;;;;;;-0.25;74.66;100270.85;124723;1143;22747;-66
2021/01/11 08:50:51;;;;;;;36.08;18.10;;;;;;;-0.24;74.95;100269.84;124478;1142;23266;-69
2021/01/11 08:53:34;;;;;;;30.37;17.30;;;;;;;-0.23;74.61;100274.20;124742;1143;22751;-65
2021/01/11 08:56:01;;;;;;;28.93;15.77;;;;;;;-0.22;74.75;100271.36;124432;1144;22888;-68
2021/01/11 08:58:29;;;;;;;26.90;15.70;;;;;;;-0.21;74.22;100269.52;124641;1144;23813;-68
2021/01/11 09:01:13;;;;;;;31.17;15.30;;;;;;;-0.19;74.20;100265.67;124451;1144;22718;-67
2021/01/11 09:03:43;;;;;;;32.87;16.53;;;;;;;-0.20;73.56;100263.99;124682;1144;22788;-68
2021/01/11 09:06:11;;;;;;;31.07;13.97;;;;;;;-0.18;74.26;100261.98;123295;1142;23303;-68
2021/01/11 09:08:39;;;;;;;26.50;14.07;;;;;;;-0.16;73.48;100269.85;121317;1144;23532;-68
2021/01/11 09:11:10;;;;;;;24.37;12.77;;;;;;;-0.14;73.30;100254.42;121427;1144;26676;-68
2021/01/11 09:13:37;;;;;;;26.73;12.03;;;;;;;-0.13;72.51;100258.77;121167;1144;23030;-68
2021/01/11 09:16:14;;;;;;;20.13;10.53;;;;;;;-0.13;73.23;100258.77;121201;1144;22912;-68
2021/01/11 09:18:42;;;;;;;18.35;9.43;;;;;;;-0.15;72.97;100256.30;121182;1144;22885;-68
2021/01/11 09:21:09;;;;;;;22.10;11.60;;;;;;;-0.14;71.99;100255.26;121107;1144;22949;-68
2021/01/11 09:23:37;;;;;;;20.67;10.87;;;;;;;-0.14;72.39;100257.94;121336;1144;22909;-68
2021/01/11 09:26:04;;;;;;;23.70;11.77;;;;;;;-0.13;72.08;100259.61;121367;1144;25689;-68
2021/01/11 09:28:33;;;;;;;21.53;11.43;;;;;;;-0.13;71.20;100259.61;121236;1144;22946;-68
2021/01/11 09:31:00;;;;;;;22.53;11.23;;;;;;;-0.13;71.29;100256.09;121233;1144;24327;-68
2021/01/11 09:33:27;;;;;;;20.20;10.30;;;;;;;-0.13;71.51;100256.93;121302;1144;26375;-68
2021/01/11 09:35:55;;;;;;;24.10;11.67;;;;;;;-0.13;71.40;100245.38;121321;1144;22921;-68
2021/01/11 09:38:23;;;;;;;22.80;12.73;;;;;;;-0.15;70.96;100247.42;121312;1144;22995;-68
2021/01/11 09:40:50;;;;;;;30.40;11.50;;;;;;;-0.16;71.62;100243.91;121397;1144;24584;-68
2021/01/11 09:43:17;;;;;;;27.60;15.25;;;;;;;-0.16;71.28;100248.42;121319;1144;22968;-64
2021/01/11 09:45:45;;;;;;;29.33;13.87;;;;;;;-0.15;71.69;100248.26;121388;1143;26044;-68
2021/01/11 09:48:12;;;;;;;31.13;13.53;;;;;;;-0.15;71.69;100239.39;121255;1144;22965;-68
2021/01/11 09:50:40;;;;;;;29.40;12.77;;;;;;;-0.14;71.61;100233.00;121374;1144;22917;-68
2021/01/11 09:53:07;;;;;;;31.90;14.65;;;;;;;-0.12;71.60;100233.66;121408;1144;22913;-68
2021/01/11 09:55:35;;;;;;;30.80;15.40;;;;;;;-0.13;72.72;100232.83;121430;1144;22935;-68
2021/01/11 09:58:04;;;;;;;28.93;14.80;;;;;;;-0.12;71.98;100233.66;121135;1143;23871;-68
2021/01/11 10:00:31;;;;;;;26.13;13.13;;;;;;;-0.12;71.26;100239.86;121371;1144;22909;-68
2021/01/11 10:02:59;;;;;;;22.40;11.73;;;;;;;-0.14;71.67;100238.35;121261;1143;22943;-69
2021/01/11 10:05:28;;;;;;;31.70;14.97;;;;;;;-0.12;71.83;100236.34;121364;1144;22978;-68
2021/01/11 10:07:55;;;;;;;26.07;12.77;;;;;;;-0.13;71.07;100231.99;121295;1144;22932;-68
2021/01/11 10:10:22;;;;;;;40.10;16.80;;;;;;;-0.12;71.21;100239.86;121359;1144;23402;-69
2021/01/11 10:12:53;;;;;;;33.43;17.80;;;;;;;-0.11;71.37;100235.34;121271;1144;23014;-70
2021/01/11 10:15:21;;;;;;;35.07;17.03;;;;;;;-0.13;71.86;100234.67;121278;1144;24339;-69
2021/01/11 10:17:48;;;;;;;37.85;18.45;;;;;;;-0.14;72.29;100230.31;121390;1144;23425;-69
2021/01/11 10:20:16;;;;;;;38.20;19.70;;;;;;;-0.15;71.78;100226.00;121195;1144;22995;-69
2021/01/11 10:22:44;;;;;;;37.23;19.50;;;;;;;-0.13;72.04;100226.63;121380;1144;22919;-69
2021/01/11 10:25:16;;;;;;;38.20;20.10;;;;;;;-0.13;72.42;100213.24;121244;1144;22882;-69
2021/01/11 10:27:44;;;;;;;38.77;20.10;;;;;;;-0.12;72.39;100226.47;121273;1144;23524;-68
2021/01/11 10:30:12;;;;;;;42.37;19.97;;;;;;;-0.10;72.32;100218.27;121219;1144;22942;-69
2021/01/11 10:32:40;;;;;;;36.07;18.83;;;;;;;-0.10;72.39;100211.06;121269;1144;23467;-69
2021/01/11 10:35:08;;;;;;;47.45;21.55;;;;;;;-0.09;72.46;100219.94;121292;1144;22932;-69
2021/01/11 10:37:35;;;;;;;39.57;19.60;;;;;;;-0.09;73.30;100217.26;121648;1144;22902;-67
2021/01/11 10:40:03;;;;;;;43.65;20.55;;;;;;;-0.09;73.58;100214.58;121268;1144;22922;-66
2021/01/11 10:42:31;;;;;;;36.77;19.53;;;;;;;-0.10;73.89;100208.39;121334;1143;22939;-66
2021/01/11 10:44:58;;;;;;;41.93;20.60;;;;;;;-0.09;73.05;100201.19;121235;1144;23944;-67
2021/01/11 10:47:26;;;;;;;43.37;21.40;;;;;;;-0.10;74.24;100197.67;121403;1144;22909;-66
2021/01/11 10:49:53;;;;;;;39.50;21.80;;;;;;;-0.06;73.78;100201.69;121099;1144;26388;-68
2021/01/11 10:52:21;;;;;;;45.47;24.20;;;;;;;-0.05;73.84;100203.36;121315;1144;22929;-68
2021/01/11 10:54:51;;;;;;;46.00;22.63;;;;;;;-0.03;73.80;100200.51;124666;1144;23618;-68
2021/01/11 10:57:18;;;;;;;43.27;21.60;;;;;;;-0.02;73.56;100207.54;124654;1144;23593;-71
2021/01/11 10:59:45;;;;;;;44.90;23.77;;;;;;;-0.02;73.34;100197.66;124922;1142;22771;-71
2021/01/11 11:02:13;;;;;;;45.70;22.23;;;;;;;0.02;74.44;100200.80;124634;1143;22775;-71
2021/01/11 11:04:41;;;;;;;47.77;23.40;;;;;;;0.04;73.47;100198.79;124844;1143;22699;-72
2021/01/11 11:07:08;;;;;;;41.60;22.50;;;;;;;0.09;73.70;100200.96;124638;1143;22666;-72
2021/01/11 11:09:36;;;;;;;44.55;24.60;;;;;;;0.13;74.46;100197.77;124811;1142;22656;-72
2021/01/11 11:12:03;;;;;;;46.30;25.00;;;;;;;0.13;73.65;100195.09;124739;1143;22862;-71
2021/01/11 11:14:31;;;;;;;46.00;23.97;;;;;;;0.16;73.76;100200.08;124656;1143;22644;-71
2021/01/11 11:16:58;;;;;;;41.80;23.60;;;;;;;0.17;74.58;100190.20;124675;1142;22769;-71
2021/01/11 11:19:25;;;;;;;39.50;22.65;;;;;;;0.20;73.78;100195.21;124822;1143;22676;-71